Portada
METAR-TAF:

METAR-TAF

Aeroports :

Kays, Iran

latitud: 26-31-36N, longitud: 053-58-54E, altitud: 30 m

Observació

L'informe es va fer fa 56 minuts, a les 03:00 UTC
Vent calma
Temperatura 30°C
Humitat 79%
Pressió 1006 hPa
Visibilitat: 6000 m

METAR: OIBK 250300Z 00000KT 6000 NSC 30/26 Q1006

Hora: 07:26 (03:56 UTC)

Pronòstic

L'informe es va fer fa 4 hores i 56 minuts, a les 23:00 UTC
Pronòstic vàlid del 25 a les 00 UTC al 26 a les 06 UTC
Vent 10 kt del Oest/Nord-Oest
Visibilitat: 8000 m
Probabilitat 40% :
Temporalment
l' 25 a les 02 UTC al 25 a les 06 UTC
Visibilitat: 4000 m
calitja
Temporalment
l' 25 a les 10 UTC al 25 a les 18 UTC
Vent 20 kt del Oest
Visibilitat: 5000 m
sorra

TAF: OIBK 242300Z 2500/2606 30010KT 8000 NSC PROB40 TEMPO 2502/2506 4000 HZ TEMPO 2510/2518 28020KT 5000 SA

Observacions i pronòstics meteorològics de més de 4000 aeroports (METAR i TAF).

Les estacions disponibles són els punts grocs i vermells al mapa.

Posi el ratolí al punt desitjat per veure el nom de l'estació.

Feu clic per veure les observacions i els pronòstics meteorològics.

Per canviar el mapa: feu clic els botons verds amb una creu de color negre per apropar; al botó verd amb un guió per allunyar la imatge; o en les fletxes verdes per a mapes adjacents.


METAR-TAF: